sensor_id;sensor_type;location;lat;lon;timestamp;pressure;altitude;pressure_sealevel;temperature;humidity
50854;BME280;44154;45.506;-122.806;2022-08-04T00:01:08;100318.88;;;29.54;42.32
50854;BME280;44154;45.506;-122.806;2022-08-04T00:04:00;100328.50;;;29.57;42.46
50854;BME280;44154;45.506;-122.806;2022-08-04T00:09:15;100325.75;;;29.57;42.58
50854;BME280;44154;45.506;-122.806;2022-08-04T00:11:45;100329.34;;;29.57;42.78
50854;BME280;44154;45.506;-122.806;2022-08-04T00:14:15;100330.16;;;29.58;42.58
50854;BME280;44154;45.506;-122.806;2022-08-04T00:16:42;100338.94;;;29.60;42.41
50854;BME280;44154;45.506;-122.806;2022-08-04T00:19:21;100332.59;;;29.59;41.81
50854;BME280;44154;45.506;-122.806;2022-08-04T00:21:59;100341.06;;;29.63;41.93
50854;BME280;44154;45.506;-122.806;2022-08-04T00:24:29;100335.06;;;29.61;41.86
50854;BME280;44154;45.506;-122.806;2022-08-04T00:26:56;100329.53;;;29.61;41.66
50854;BME280;44154;45.506;-122.806;2022-08-04T00:29:24;100331.19;;;29.62;41.70
50854;BME280;44154;45.506;-122.806;2022-08-04T00:31:51;100341.31;;;29.67;41.81
50854;BME280;44154;45.506;-122.806;2022-08-04T00:34:18;100341.31;;;29.67;42.09
50854;BME280;44154;45.506;-122.806;2022-08-04T00:36:45;100348.38;;;29.73;41.85
50854;BME280;44154;45.506;-122.806;2022-08-04T00:39:13;100332.97;;;29.72;41.93
50854;BME280;44154;45.506;-122.806;2022-08-04T00:48:08;100338.03;;;29.84;41.39
50854;BME280;44154;45.506;-122.806;2022-08-04T00:54:33;100331.09;;;29.86;41.19
50854;BME280;44154;45.506;-122.806;2022-08-04T00:57:02;100345.91;;;29.90;40.41
50854;BME280;44154;45.506;-122.806;2022-08-04T01:02:37;100340.06;;;29.92;41.08
50854;BME280;44154;45.506;-122.806;2022-08-04T01:06:00;100341.22;;;29.91;41.19
50854;BME280;44154;45.506;-122.806;2022-08-04T01:08:41;100338.47;;;29.91;41.36
50854;BME280;44154;45.506;-122.806;2022-08-04T01:16:15;100332.94;;;29.91;41.48
50854;BME280;44154;45.506;-122.806;2022-08-04T01:23:53;100329.78;;;29.98;41.41
50854;BME280;44154;45.506;-122.806;2022-08-04T01:29:12;100321.72;;;30.01;41.67
50854;BME280;44154;45.506;-122.806;2022-08-04T01:34:11;100309.34;;;29.99;41.78
50854;BME280;44154;45.506;-122.806;2022-08-04T01:36:46;100301.97;;;29.94;41.63
50854;BME280;44154;45.506;-122.806;2022-08-04T01:39:14;100311.19;;;30.03;41.45
50854;BME280;44154;45.506;-122.806;2022-08-04T01:41:59;100313.94;;;30.03;40.73
50854;BME280;44154;45.506;-122.806;2022-08-04T01:44:27;100307.22;;;30.09;40.61
50854;BME280;44154;45.506;-122.806;2022-08-04T01:46:55;100307.31;;;30.04;39.79
50854;BME280;44154;45.506;-122.806;2022-08-04T01:49:28;100317.66;;;30.13;39.82
50854;BME280;44154;45.506;-122.806;2022-08-04T01:51:56;100315.69;;;30.13;39.38
50854;BME280;44154;45.506;-122.806;2022-08-04T01:54:24;100314.34;;;30.10;39.46
50854;BME280;44154;45.506;-122.806;2022-08-04T01:56:53;100315.38;;;30.15;38.80
50854;BME280;44154;45.506;-122.806;2022-08-04T01:59:20;100304.16;;;30.11;38.59
50854;BME280;44154;45.506;-122.806;2022-08-04T02:01:47;100304.97;;;30.12;38.79
50854;BME280;44154;45.506;-122.806;2022-08-04T02:04:18;100305.56;;;30.08;38.40
50854;BME280;44154;45.506;-122.806;2022-08-04T02:12:26;100319.38;;;30.08;38.19
50854;BME280;44154;45.506;-122.806;2022-08-04T02:15:03;100308.66;;;30.07;37.95
50854;BME280;44154;45.506;-122.806;2022-08-04T02:17:54;100308.84;;;30.10;37.70
50854;BME280;44154;45.506;-122.806;2022-08-04T02:20:32;100302.28;;;30.06;37.51
50854;BME280;44154;45.506;-122.806;2022-08-04T02:23:44;100305.88;;;30.07;37.09
50854;BME280;44154;45.506;-122.806;2022-08-04T02:26:19;100307.81;;;30.06;37.57
50854;BME280;44154;45.506;-122.806;2022-08-04T02:28:51;100305.16;;;30.01;37.78
50854;BME280;44154;45.506;-122.806;2022-08-04T02:31:37;100321.09;;;30.04;37.36
50854;BME280;44154;45.506;-122.806;2022-08-04T02:34:27;100298.81;;;29.87;37.38
50854;BME280;44154;45.506;-122.806;2022-08-04T02:36:54;100320.28;;;30.04;37.57
50854;BME280;44154;45.506;-122.806;2022-08-04T02:39:21;100327.84;;;29.98;37.61
50854;BME280;44154;45.506;-122.806;2022-08-04T02:41:49;100338.28;;;30.01;37.66
50854;BME280;44154;45.506;-122.806;2022-08-04T02:44:25;100340.31;;;29.96;37.26
50854;BME280;44154;45.506;-122.806;2022-08-04T02:46:54;100348.28;;;29.97;37.76
50854;BME280;44154;45.506;-122.806;2022-08-04T02:49:21;100355.44;;;29.98;37.52
50854;BME280;44154;45.506;-122.806;2022-08-04T02:51:56;100340.91;;;29.92;37.12
50854;BME280;44154;45.506;-122.806;2022-08-04T02:54:24;100344.69;;;29.97;37.28
50854;BME280;44154;45.506;-122.806;2022-08-04T02:56:54;100347.78;;;29.95;37.32
50854;BME280;44154;45.506;-122.806;2022-08-04T02:59:25;100351.53;;;29.99;37.45
50854;BME280;44154;45.506;-122.806;2022-08-04T03:01:55;100363.19;;;29.96;37.58
50854;BME280;44154;45.506;-122.806;2022-08-04T03:04:26;100360.72;;;29.95;37.38
50854;BME280;44154;45.506;-122.806;2022-08-04T03:26:49;100387.19;;;29.96;36.76
50854;BME280;44154;45.506;-122.806;2022-08-04T03:52:16;100425.28;;;29.74;36.66
50854;BME280;44154;45.506;-122.806;2022-08-04T04:20:09;100493.44;;;29.55;36.26
50854;BME280;44154;45.506;-122.806;2022-08-04T04:25:35;100506.47;;;29.49;35.94
50854;BME280;44154;45.506;-122.806;2022-08-04T04:37:07;100532.16;;;29.45;35.80
50854;BME280;44154;45.506;-122.806;2022-08-04T04:39:51;100529.97;;;29.41;35.55
50854;BME280;44154;45.506;-122.806;2022-08-04T04:45:35;100528.53;;;29.20;35.44
50854;BME280;44154;45.506;-122.806;2022-08-04T04:56:44;100553.44;;;29.15;35.98
50854;BME280;44154;45.506;-122.806;2022-08-04T04:59:19;100558.84;;;29.25;35.91
50854;BME280;44154;45.506;-122.806;2022-08-04T05:05:05;100553.34;;;29.25;35.51
50854;BME280;44154;45.506;-122.806;2022-08-04T05:13:33;100562.78;;;29.14;35.71
50854;BME280;44154;45.506;-122.806;2022-08-04T05:18:39;100561.25;;;29.02;35.76
50854;BME280;44154;45.506;-122.806;2022-08-04T05:24:01;100583.84;;;29.04;35.77
50854;BME280;44154;45.506;-122.806;2022-08-04T05:26:32;100587.75;;;28.98;36.15
50854;BME280;44154;45.506;-122.806;2022-08-04T05:29:08;100596.25;;;29.02;35.61
50854;BME280;44154;45.506;-122.806;2022-08-04T05:31:40;100582.59;;;28.92;36.31
50854;BME280;44154;45.506;-122.806;2022-08-04T05:34:11;100599.03;;;29.02;35.75
50854;BME280;44154;45.506;-122.806;2022-08-04T05:36:43;100595.50;;;28.96;35.74
50854;BME280;44154;45.506;-122.806;2022-08-04T05:39:21;100603.72;;;29.01;35.70
50854;BME280;44154;45.506;-122.806;2022-08-04T05:41:50;100612.28;;;29.00;35.85
50854;BME280;44154;45.506;-122.806;2022-08-04T05:44:17;100601.59;;;28.93;36.15
50854;BME280;44154;45.506;-122.806;2022-08-04T05:46:47;100607.09;;;28.93;36.10
50854;BME280;44154;45.506;-122.806;2022-08-04T05:49:15;100599.13;;;28.92;35.95
50854;BME280;44154;45.506;-122.806;2022-08-04T05:51:42;100598.84;;;28.88;35.98
50854;BME280;44154;45.506;-122.806;2022-08-04T05:54:09;100600.03;;;28.82;36.41
50854;BME280;44154;45.506;-122.806;2022-08-04T05:56:37;100605.53;;;28.82;35.81
50854;BME280;44154;45.506;-122.806;2022-08-04T05:59:04;100614.66;;;28.77;36.24
50854;BME280;44154;45.506;-122.806;2022-08-04T06:01:31;100607.31;;;28.67;36.11
50854;BME280;44154;45.506;-122.806;2022-08-04T06:04:00;100611.13;;;28.71;35.72
50854;BME280;44154;45.506;-122.806;2022-08-04T06:06:29;100612.53;;;28.69;35.70
50854;BME280;44154;45.506;-122.806;2022-08-04T06:08:56;100619.72;;;28.65;36.35
50854;BME280;44154;45.506;-122.806;2022-08-04T06:11:25;100614.78;;;28.62;35.89
50854;BME280;44154;45.506;-122.806;2022-08-04T06:13:56;100602.16;;;28.50;35.61
50854;BME280;44154;45.506;-122.806;2022-08-04T06:16:26;100621.94;;;28.58;35.64
50854;BME280;44154;45.506;-122.806;2022-08-04T06:18:55;100608.53;;;28.46;35.89
50854;BME280;44154;45.506;-122.806;2022-08-04T06:21:26;100634.69;;;28.48;36.03
50854;BME280;44154;45.506;-122.806;2022-08-04T06:23:54;100631.38;;;28.46;36.09
50854;BME280;44154;45.506;-122.806;2022-08-04T06:26:22;100632.25;;;28.42;35.83
50854;BME280;44154;45.506;-122.806;2022-08-04T06:28:50;100641.34;;;28.37;35.73
50854;BME280;44154;45.506;-122.806;2022-08-04T06:31:18;100641.34;;;28.37;36.22
50854;BME280;44154;45.506;-122.806;2022-08-04T06:34:09;100646.59;;;28.33;37.60
50854;BME280;44154;45.506;-122.806;2022-08-04T06:36:37;100634.53;;;28.29;37.26
50854;BME280;44154;45.506;-122.806;2022-08-04T06:39:06;100629.63;;;28.21;36.60
50854;BME280;44154;45.506;-122.806;2022-08-04T06:41:33;100636.81;;;28.12;36.72
50854;BME280;44154;45.506;-122.806;2022-08-04T06:44:06;100641.50;;;28.16;36.03
50854;BME280;44154;45.506;-122.806;2022-08-04T06:46:39;100640.13;;;28.09;35.94
50854;BME280;44154;45.506;-122.806;2022-08-04T06:49:06;100631.38;;;28.01;36.03
50854;BME280;44154;45.506;-122.806;2022-08-04T06:51:34;100651.19;;;28.03;36.06
50854;BME280;44154;45.506;-122.806;2022-08-04T06:54:02;100651.19;;;27.98;36.38
50854;BME280;44154;45.506;-122.806;2022-08-04T06:56:29;100661.63;;;27.96;36.37
50854;BME280;44154;45.506;-122.806;2022-08-04T06:58:57;100660.25;;;27.94;36.46
50854;BME280;44154;45.506;-122.806;2022-08-04T07:01:25;100670.44;;;27.93;36.26
50854;BME280;44154;45.506;-122.806;2022-08-04T07:03:53;100657.56;;;27.78;36.05
50854;BME280;44154;45.506;-122.806;2022-08-04T07:06:22;100672.69;;;27.86;36.02
50854;BME280;44154;45.506;-122.806;2022-08-04T07:08:50;100640.00;;;27.69;36.52
50854;BME280;44154;45.506;-122.806;2022-08-04T07:11:19;100675.97;;;27.88;36.41
50854;BME280;44154;45.506;-122.806;2022-08-04T07:13:46;100674.59;;;27.85;36.60
50854;BME280;44154;45.506;-122.806;2022-08-04T07:16:15;100668.56;;;27.78;36.63
50854;BME280;44154;45.506;-122.806;2022-08-04T07:18:43;100679.28;;;27.80;36.50
50854;BME280;44154;45.506;-122.806;2022-08-04T07:21:10;100676.56;;;27.75;36.64
50854;BME280;44154;45.506;-122.806;2022-08-04T07:23:44;100676.56;;;27.75;36.82
50854;BME280;44154;45.506;-122.806;2022-08-04T07:26:10;100688.13;;;27.72;36.44
50854;BME280;44154;45.506;-122.806;2022-08-04T07:28:38;100676.56;;;27.64;36.40
50854;BME280;44154;45.506;-122.806;2022-08-04T07:31:05;100677.97;;;27.62;36.58
50854;BME280;44154;45.506;-122.806;2022-08-04T07:33:34;100689.78;;;27.62;36.95
50854;BME280;44154;45.506;-122.806;2022-08-04T07:36:01;100688.69;;;27.58;36.38
50854;BME280;44154;45.506;-122.806;2022-08-04T07:38:27;100678.81;;;27.52;36.73
50854;BME280;44154;45.506;-122.806;2022-08-04T07:40:54;100693.09;;;27.54;36.85
50854;BME280;44154;45.506;-122.806;2022-08-04T07:43:21;100677.19;;;27.41;36.68
50854;BME280;44154;45.506;-122.806;2022-08-04T07:45:48;100684.88;;;27.44;36.80
50854;BME280;44154;45.506;-122.806;2022-08-04T07:48:14;100696.69;;;27.44;36.76
50854;BME280;44154;45.506;-122.806;2022-08-04T07:50:43;100699.97;;;27.41;36.66
50854;BME280;44154;45.506;-122.806;2022-08-04T07:53:11;100697.50;;;27.40;36.65
50854;BME280;44154;45.506;-122.806;2022-08-04T07:55:38;100702.47;;;27.38;36.86
50854;BME280;44154;45.506;-122.806;2022-08-04T07:58:04;100712.91;;;27.35;36.76
50854;BME280;44154;45.506;-122.806;2022-08-04T08:00:30;100707.69;;;27.34;36.91
50854;BME280;44154;45.506;-122.806;2022-08-04T08:02:57;100719.47;;;27.29;37.16
50854;BME280;44154;45.506;-122.806;2022-08-04T08:05:24;100712.63;;;27.22;36.81
50854;BME280;44154;45.506;-122.806;2022-08-04T08:07:50;100716.75;;;27.24;36.93
50854;BME280;44154;45.506;-122.806;2022-08-04T08:10:20;100704.66;;;27.10;37.10
50854;BME280;44154;45.506;-122.806;2022-08-04T08:12:47;100714.81;;;27.09;37.12
50854;BME280;44154;45.506;-122.806;2022-08-04T08:15:13;100713.97;;;27.04;37.12
50854;BME280;44154;45.506;-122.806;2022-08-04T08:17:40;100731.00;;;27.11;37.06
50854;BME280;44154;45.506;-122.806;2022-08-04T08:20:07;100726.06;;;27.08;37.37
50854;BME280;44154;45.506;-122.806;2022-08-04T08:22:36;100732.13;;;27.05;37.16
50854;BME280;44154;45.506;-122.806;2022-08-04T08:25:05;100726.91;;;27.03;37.45
50854;BME280;44154;45.506;-122.806;2022-08-04T08:27:32;100727.16;;;27.02;37.51
50854;BME280;44154;45.506;-122.806;2022-08-04T08:29:59;100722.50;;;26.92;37.35
50854;BME280;44154;45.506;-122.806;2022-08-04T08:32:26;100726.34;;;26.96;37.30
50854;BME280;44154;45.506;-122.806;2022-08-04T08:34:53;100713.97;;;26.83;37.40
50854;BME280;44154;45.506;-122.806;2022-08-04T08:37:33;100718.38;;;26.84;37.34
50854;BME280;44154;45.506;-122.806;2022-08-04T08:49:06;100705.19;;;26.81;37.64
50854;BME280;44154;45.506;-122.806;2022-08-04T08:52:03;100702.69;;;26.74;37.94
50854;BME280;44154;45.506;-122.806;2022-08-04T09:03:35;100687.06;;;26.70;37.61
50854;BME280;44154;45.506;-122.806;2022-08-04T09:05:50;100688.13;;;26.69;37.88
50854;BME280;44154;45.506;-122.806;2022-08-04T09:08:51;100688.66;;;26.65;37.56
50854;BME280;44154;45.506;-122.806;2022-08-04T09:11:23;100681.50;;;26.64;37.87
50854;BME280;44154;45.506;-122.806;2022-08-04T09:13:56;100684.25;;;26.59;38.07
50854;BME280;44154;45.506;-122.806;2022-08-04T09:22:03;100698.78;;;26.55;38.00
50854;BME280;44154;45.506;-122.806;2022-08-04T09:27:25;100700.94;;;26.47;37.64
50854;BME280;44154;45.506;-122.806;2022-08-04T09:30:09;100698.75;;;26.44;37.99
50854;BME280;44154;45.506;-122.806;2022-08-04T09:36:26;100702.63;;;26.43;37.70
50854;BME280;44154;45.506;-122.806;2022-08-04T09:38:45;100710.28;;;26.41;37.92
50854;BME280;44154;45.506;-122.806;2022-08-04T09:42:17;100707.53;;;26.36;37.96
50854;BME280;44154;45.506;-122.806;2022-08-04T09:44:27;100708.88;;;26.39;37.96
50854;BME280;44154;45.506;-122.806;2022-08-04T09:47:11;100706.41;;;26.37;38.05
50854;BME280;44154;45.506;-122.806;2022-08-04T09:49:40;100708.03;;;26.33;37.99
50854;BME280;44154;45.506;-122.806;2022-08-04T09:52:31;100713.84;;;26.37;37.90
50854;BME280;44154;45.506;-122.806;2022-08-04T09:58:35;100674.47;;;26.05;38.08
50854;BME280;44154;45.506;-122.806;2022-08-04T10:01:08;100711.59;;;26.28;37.96
50854;BME280;44154;45.506;-122.806;2022-08-04T10:03:42;100712.16;;;26.25;38.05
50854;BME280;44154;45.506;-122.806;2022-08-04T10:12:11;100712.69;;;26.22;37.79
50854;BME280;44154;45.506;-122.806;2022-08-04T10:20:07;100716.75;;;26.14;37.67
50854;BME280;44154;45.506;-122.806;2022-08-04T10:22:42;100711.00;;;26.11;37.65
50854;BME280;44154;45.506;-122.806;2022-08-04T10:28:20;100714.28;;;26.08;37.96
50854;BME280;44154;45.506;-122.806;2022-08-04T10:30:51;100719.19;;;26.06;37.87
50854;BME280;44154;45.506;-122.806;2022-08-04T10:33:30;100721.38;;;26.04;37.99
50854;BME280;44154;45.506;-122.806;2022-08-04T10:36:03;100695.22;;;25.91;38.06
50854;BME280;44154;45.506;-122.806;2022-08-04T10:38:37;100706.50;;;26.00;37.85
50854;BME280;44154;45.506;-122.806;2022-08-04T10:47:00;100696.31;;;25.85;38.27
50854;BME280;44154;45.506;-122.806;2022-08-04T10:52:17;100694.97;;;25.87;38.11
50854;BME280;44154;45.506;-122.806;2022-08-04T11:00:20;100697.06;;;25.75;38.15
50854;BME280;44154;45.506;-122.806;2022-08-04T11:02:59;100716.00;;;25.76;38.18
50854;BME280;44154;45.506;-122.806;2022-08-04T11:05:30;100717.88;;;25.71;38.25
50854;BME280;44154;45.506;-122.806;2022-08-04T11:08:07;100717.88;;;25.71;38.44
50854;BME280;44154;45.506;-122.806;2022-08-04T11:10:58;100696.41;;;25.57;38.35
50854;BME280;44154;45.506;-122.806;2022-08-04T11:13:31;100707.94;;;25.59;38.69
50854;BME280;44154;45.506;-122.806;2022-08-04T11:16:02;100722.47;;;25.60;38.61
50854;BME280;44154;45.506;-122.806;2022-08-04T11:18:45;100705.41;;;25.48;38.63
50854;BME280;44154;45.506;-122.806;2022-08-04T11:21:20;100704.31;;;25.49;38.64
50854;BME280;44154;45.506;-122.806;2022-08-04T11:24:22;100712.81;;;25.47;38.82
50854;BME280;44154;45.506;-122.806;2022-08-04T11:26:57;100725.38;;;25.48;38.98
50854;BME280;44154;45.506;-122.806;2022-08-04T11:29:50;100721.53;;;25.44;38.80
50854;BME280;44154;45.506;-122.806;2022-08-04T11:32:29;100710.75;;;25.32;38.76
50854;BME280;44154;45.506;-122.806;2022-08-04T11:35:01;100714.22;;;25.22;39.12
50854;BME280;44154;45.506;-122.806;2022-08-04T11:38:19;100737.78;;;25.23;38.95
50854;BME280;44154;45.506;-122.806;2022-08-04T11:40:42;100733.41;;;25.22;38.95
50854;BME280;44154;45.506;-122.806;2022-08-04T11:43:15;100738.31;;;25.20;39.25
50854;BME280;44154;45.506;-122.806;2022-08-04T11:46:02;100732.81;;;25.20;39.06
50854;BME280;44154;45.506;-122.806;2022-08-04T11:48:44;100732.78;;;25.15;39.41
50854;BME280;44154;45.506;-122.806;2022-08-04T11:51:14;100739.63;;;25.18;39.02
50854;BME280;44154;45.506;-122.806;2022-08-04T11:53:41;100726.47;;;25.15;38.96
50854;BME280;44154;45.506;-122.806;2022-08-04T11:56:12;100733.88;;;25.14;39.32
50854;BME280;44154;45.506;-122.806;2022-08-04T11:58:40;100718.16;;;25.04;39.18
50854;BME280;44154;45.506;-122.806;2022-08-04T12:01:27;100735.47;;;25.10;39.34
50854;BME280;44154;45.506;-122.806;2022-08-04T12:06:55;100715.63;;;24.98;39.49
50854;BME280;44154;45.506;-122.806;2022-08-04T12:18:48;100725.78;;;24.97;39.63
50854;BME280;44154;45.506;-122.806;2022-08-04T12:20:48;100705.66;;;24.86;39.70
50854;BME280;44154;45.506;-122.806;2022-08-04T12:23:25;100713.66;;;24.88;39.85
50854;BME280;44154;45.506;-122.806;2022-08-04T12:26:01;100725.44;;;24.93;39.86
50854;BME280;44154;45.506;-122.806;2022-08-04T12:28:34;100715.03;;;24.90;39.80
50854;BME280;44154;45.506;-122.806;2022-08-04T12:31:18;100731.97;;;24.87;39.46
50854;BME280;44154;45.506;-122.806;2022-08-04T12:37:02;100727.00;;;24.84;39.67
50854;BME280;44154;45.506;-122.806;2022-08-04T12:39:31;100737.44;;;24.87;39.81
50854;BME280;44154;45.506;-122.806;2022-08-04T12:42:18;100737.66;;;24.81;39.92
50854;BME280;44154;45.506;-122.806;2022-08-04T12:44:46;100737.41;;;24.82;39.77
50854;BME280;44154;45.506;-122.806;2022-08-04T12:47:22;100736.31;;;24.83;39.85
50854;BME280;44154;45.506;-122.806;2022-08-04T12:49:48;100729.69;;;24.79;39.61
50854;BME280;44154;45.506;-122.806;2022-08-04T12:52:17;100736.81;;;24.80;39.67
50854;BME280;44154;45.506;-122.806;2022-08-04T12:54:47;100746.69;;;24.81;39.85
50854;BME280;44154;45.506;-122.806;2022-08-04T12:57:17;100737.88;;;24.74;39.60
50854;BME280;44154;45.506;-122.806;2022-08-04T12:59:44;100754.59;;;24.77;39.75
50854;BME280;44154;45.506;-122.806;2022-08-04T13:02:33;100721.66;;;24.45;40.00
50854;BME280;44154;45.506;-122.806;2022-08-04T13:05:04;100762.16;;;24.70;39.67
50854;BME280;44154;45.506;-122.806;2022-08-04T13:07:39;100761.91;;;24.72;39.83
50854;BME280;44154;45.506;-122.806;2022-08-04T13:10:12;100735.44;;;24.55;39.80
50854;BME280;44154;45.506;-122.806;2022-08-04T13:12:41;100766.00;;;24.69;39.80
50854;BME280;44154;45.506;-122.806;2022-08-04T13:15:17;100749.22;;;24.61;39.88
50854;BME280;44154;45.506;-122.806;2022-08-04T13:18:01;100765.16;;;24.69;39.80
50854;BME280;44154;45.506;-122.806;2022-08-04T13:20:34;100762.94;;;24.66;39.80
50854;BME280;44154;45.506;-122.806;2022-08-04T13:23:08;100774.22;;;24.69;39.81
50854;BME280;44154;45.506;-122.806;2022-08-04T13:25:40;100764.28;;;24.63;40.01
50854;BME280;44154;45.506;-122.806;2022-08-04T13:28:11;100770.97;;;24.72;39.85
50854;BME280;44154;45.506;-122.806;2022-08-04T13:30:38;100784.44;;;24.79;39.82
50854;BME280;44154;45.506;-122.806;2022-08-04T13:33:05;100767.63;;;24.70;39.98
50854;BME280;44154;45.506;-122.806;2022-08-04T13:35:33;100781.41;;;24.75;39.91
50854;BME280;44154;45.506;-122.806;2022-08-04T13:38:03;100765.38;;;24.62;39.61
50854;BME280;44154;45.506;-122.806;2022-08-04T13:40:33;100795.72;;;24.83;39.81
50854;BME280;44154;45.506;-122.806;2022-08-04T13:43:01;100787.69;;;24.76;39.38
50854;BME280;44154;45.506;-122.806;2022-08-04T13:45:28;100799.53;;;24.82;39.57
50854;BME280;44154;45.506;-122.806;2022-08-04T13:47:59;100805.84;;;24.82;39.74
50854;BME280;44154;45.506;-122.806;2022-08-04T13:50:28;100808.00;;;24.80;39.57
50854;BME280;44154;45.506;-122.806;2022-08-04T13:53:00;100799.47;;;24.76;39.74
50854;BME280;44154;45.506;-122.806;2022-08-04T13:55:28;100811.56;;;24.81;39.68
50854;BME280;44154;45.506;-122.806;2022-08-04T13:58:18;100811.81;;;24.79;40.15
50854;BME280;44154;45.506;-122.806;2022-08-04T14:06:20;100810.16;;;24.78;40.55
50854;BME280;44154;45.506;-122.806;2022-08-04T14:12:23;100808.25;;;24.79;40.45
50854;BME280;44154;45.506;-122.806;2022-08-04T14:14:27;100805.69;;;24.72;40.32
50854;BME280;44154;45.506;-122.806;2022-08-04T14:17:11;100805.91;;;24.65;40.47
50854;BME280;44154;45.506;-122.806;2022-08-04T14:25:09;100831.44;;;24.71;40.78
50854;BME280;44154;45.506;-122.806;2022-08-04T14:27:46;100837.97;;;24.70;40.71
50854;BME280;44154;45.506;-122.806;2022-08-04T14:30:33;100840.22;;;24.73;40.85
50854;BME280;44154;45.506;-122.806;2022-08-04T14:35:32;100842.94;;;24.73;40.50
50854;BME280;44154;45.506;-122.806;2022-08-04T14:40:32;100846.53;;;24.73;40.71
50854;BME280;44154;45.506;-122.806;2022-08-04T14:42:59;100841.88;;;24.74;40.68
50854;BME280;44154;45.506;-122.806;2022-08-04T14:45:38;100847.34;;;24.74;40.84
50854;BME280;44154;45.506;-122.806;2022-08-04T14:48:12;100841.88;;;24.74;40.55
50854;BME280;44154;45.506;-122.806;2022-08-04T14:50:42;100850.63;;;24.76;40.68
50854;BME280;44154;45.506;-122.806;2022-08-04T14:53:10;100741.13;;;24.04;40.45
50854;BME280;44154;45.506;-122.806;2022-08-04T14:55:45;100859.44;;;24.78;41.07
50854;BME280;44154;45.506;-122.806;2022-08-04T14:58:19;100868.72;;;24.77;41.11
50854;BME280;44154;45.506;-122.806;2022-08-04T15:00:47;100871.53;;;24.82;41.14
50854;BME280;44154;45.506;-122.806;2022-08-04T15:03:13;100772.63;;;24.29;41.10
50854;BME280;44154;45.506;-122.806;2022-08-04T15:05:41;100858.97;;;24.86;40.83
50854;BME280;44154;45.506;-122.806;2022-08-04T15:08:08;100850.72;;;24.81;41.04
50854;BME280;44154;45.506;-122.806;2022-08-04T15:10:34;100866.09;;;24.87;41.14
50854;BME280;44154;45.506;-122.806;2022-08-04T15:13:02;100837.47;;;24.73;41.18
50854;BME280;44154;45.506;-122.806;2022-08-04T15:15:28;100841.88;;;24.74;41.36
50854;BME280;44154;45.506;-122.806;2022-08-04T15:17:54;100850.34;;;24.72;41.38
50854;BME280;44154;45.506;-122.806;2022-08-04T15:20:21;100864.41;;;24.81;41.42
50854;BME280;44154;45.506;-122.806;2022-08-04T15:22:48;100871.53;;;24.82;41.49
50854;BME280;44154;45.506;-122.806;2022-08-04T15:25:15;100856.31;;;24.69;41.64
50854;BME280;44154;45.506;-122.806;2022-08-04T15:27:41;100796.53;;;24.39;41.51
50854;BME280;44154;45.506;-122.806;2022-08-04T15:30:10;100861.72;;;24.86;41.41
50854;BME280;44154;45.506;-122.806;2022-08-04T15:32:49;100780.59;;;24.36;41.47
50854;BME280;44154;45.506;-122.806;2022-08-04T15:35:23;100862.03;;;24.90;41.65
50854;BME280;44154;45.506;-122.806;2022-08-04T15:40:46;100854.59;;;24.85;41.30
50854;BME280;44154;45.506;-122.806;2022-08-04T15:43:37;100852.94;;;24.84;41.32
50854;BME280;44154;45.506;-122.806;2022-08-04T15:46:07;100822.38;;;24.70;41.13
50854;BME280;44154;45.506;-122.806;2022-08-04T15:48:33;100842.53;;;24.86;41.40
50854;BME280;44154;45.506;-122.806;2022-08-04T15:51:01;100845.53;;;24.85;41.11
50854;BME280;44154;45.506;-122.806;2022-08-04T15:53:31;100843.66;;;24.85;40.96
50854;BME280;44154;45.506;-122.806;2022-08-04T15:55:58;100834.34;;;24.86;41.32
50854;BME280;44154;45.506;-122.806;2022-08-04T15:58:24;100821.69;;;24.80;41.35
50854;BME280;44154;45.506;-122.806;2022-08-04T16:21:49;100836.63;;;24.94;41.21
50854;BME280;44154;45.506;-122.806;2022-08-04T16:24:21;100839.94;;;24.97;41.30
50854;BME280;44154;45.506;-122.806;2022-08-04T16:26:59;100850.91;;;24.97;41.21
50854;BME280;44154;45.506;-122.806;2022-08-04T16:32:22;100832.13;;;24.83;41.66
50854;BME280;44154;45.506;-122.806;2022-08-04T16:37:21;100848.44;;;24.95;41.20
50854;BME280;44154;45.506;-122.806;2022-08-04T16:39:48;100850.91;;;24.97;41.43
50854;BME280;44154;45.506;-122.806;2022-08-04T16:42:33;100779.66;;;24.47;41.48
50854;BME280;44154;45.506;-122.806;2022-08-04T16:45:11;100859.13;;;24.97;41.34
50854;BME280;44154;45.506;-122.806;2022-08-04T16:50:18;100866.75;;;24.94;41.20
50854;BME280;44154;45.506;-122.806;2022-08-04T16:52:46;100867.06;;;24.98;41.12
50854;BME280;44154;45.506;-122.806;2022-08-04T16:55:21;100874.97;;;24.94;41.07
50854;BME280;44154;45.506;-122.806;2022-08-04T16:57:49;100878.03;;;24.98;40.98
50854;BME280;44154;45.506;-122.806;2022-08-04T17:00:16;100860.63;;;24.87;41.10
50854;BME280;44154;45.506;-122.806;2022-08-04T17:02:43;100882.41;;;24.99;40.93
50854;BME280;44154;45.506;-122.806;2022-08-04T17:05:21;100882.72;;;25.03;41.26
50854;BME280;44154;45.506;-122.806;2022-08-04T17:07:52;100887.38;;;25.02;41.04
50854;BME280;44154;45.506;-122.806;2022-08-04T17:10:19;100885.91;;;24.94;41.12
50854;BME280;44154;45.506;-122.806;2022-08-04T17:12:45;100895.34;;;25.04;40.98
50854;BME280;44154;45.506;-122.806;2022-08-04T17:15:24;100901.63;;;25.04;41.26
50854;BME280;44154;45.506;-122.806;2022-08-04T17:17:51;100896.97;;;25.05;40.96